Time;durP1;ratioP1;P1;durP2;ratioP2;P2;SDS_P1;SDS_P2;PMS_P1;PMS_P2;Temp;Humidity;BMP_temperature;BMP_pressure;BME280_temperature;BME280_humidity;BME280_pressure;Samples;Min_cycle;Max_cycle;Signal;HPM_P1;HPM_P2
2022/06/13 00:00:08;;;;;;;352.70;217.48;;;;;;;20.36;86.89;99338.25;407234;24;901;-74
2022/06/13 00:00:22;;;;;;;353.90;219.85;;;;;;;20.35;86.40;99342.75;409704;24;1246;-74
2022/06/13 00:00:33;;;;;;;358.15;219.40;;;;;;;20.36;86.35;99341.72;407959;24;967;-74
2022/06/13 00:00:43;;;;;;;358.38;218.77;;;;;;;20.38;86.46;99344.28;411824;23;827;-74
2022/06/13 00:00:54;;;;;;;355.57;217.87;;;;;;;20.38;86.81;99341.63;409995;24;1236;-74
2022/06/13 00:01:11;;;;;;;357.00;221.55;;;;;;;20.39;86.37;99348.63;407933;24;1317;-74
2022/06/13 00:01:28;;;;;;;356.40;218.15;;;;;;;20.40;86.87;99345.00;409949;24;813;-74
2022/06/13 00:01:38;;;;;;;355.77;214.43;;;;;;;20.39;86.79;99343.31;410264;24;834;-74
2022/06/13 00:01:49;;;;;;;353.80;212.53;;;;;;;20.38;86.49;99341.63;408394;24;879;-75
2022/06/13 00:01:59;;;;;;;352.75;210.65;;;;;;;20.39;86.36;99343.31;406235;24;1336;-74
2022/06/13 00:02:09;;;;;;;351.43;213.83;;;;;;;20.41;86.66;99352.00;405990;24;766;-74
2022/06/13 00:02:20;;;;;;;353.45;216.18;;;;;;;20.41;86.34;99341.38;406177;24;1450;-74
2022/06/13 00:02:30;;;;;;;354.33;218.73;;;;;;;20.40;86.97;99345.00;405095;24;1971;-75
2022/06/13 00:02:41;;;;;;;353.93;217.50;;;;;;;20.40;86.78;99339.69;406193;24;1203;-74
2022/06/13 00:02:51;;;;;;;352.98;217.85;;;;;;;20.40;86.46;99345.00;408148;24;830;-74
2022/06/13 00:03:02;;;;;;;351.97;217.20;;;;;;;20.39;86.74;99344.16;408098;24;914;-74
2022/06/13 00:03:12;;;;;;;351.85;217.55;;;;;;;20.37;86.96;99342.56;408346;24;857;-75
2022/06/13 00:03:23;;;;;;;351.52;215.70;;;;;;;20.34;86.83;99346.38;408274;24;830;-74
2022/06/13 00:03:33;;;;;;;351.17;212.93;;;;;;;20.33;86.48;99343.84;408378;24;854;-74
2022/06/13 00:03:44;;;;;;;352.58;215.48;;;;;;;20.35;86.40;99344.56;409857;24;1279;-74
2022/06/13 00:03:54;;;;;;;355.53;219.30;;;;;;;20.32;86.87;99342.16;410200;24;894;-74
2022/06/13 00:04:05;;;;;;;356.00;220.47;;;;;;;20.32;87.14;99342.16;410086;24;847;-74
2022/06/13 00:04:15;;;;;;;357.25;219.80;;;;;;;20.32;87.13;99342.16;408060;24;1331;-74
2022/06/13 00:04:26;;;;;;;355.40;217.82;;;;;;;20.33;87.14;99343.84;409945;24;869;-75
2022/06/13 00:04:36;;;;;;;355.33;216.43;;;;;;;20.33;86.76;99344.69;409686;24;1302;-74
2022/06/13 00:04:46;;;;;;;354.90;215.17;;;;;;;20.32;86.55;99347.47;408430;24;1318;-75
2022/06/13 00:04:57;;;;;;;356.05;217.15;;;;;;;20.28;86.96;99344.22;408063;24;887;-74
2022/06/13 00:05:08;;;;;;;355.47;219.53;;;;;;;20.25;87.04;99342.69;408196;24;1615;-74
2022/06/13 00:05:18;;;;;;;355.80;221.23;;;;;;;20.25;86.95;99348.00;409707;24;996;-74
2022/06/13 00:05:29;;;;;;;355.25;219.18;;;;;;;20.26;87.00;99344.38;409148;24;1060;-74
2022/06/13 00:05:39;;;;;;;353.93;216.33;;;;;;;20.27;86.70;99345.19;409153;24;1079;-74
2022/06/13 00:05:49;;;;;;;350.95;211.18;;;;;;;20.29;87.02;99342.41;409664;24;1238;-74
2022/06/13 00:06:00;;;;;;;350.67;206.63;;;;;;;20.30;87.11;99347.59;409669;24;888;-74
2022/06/13 00:06:10;;;;;;;350.17;204.80;;;;;;;20.33;86.91;99346.50;411610;24;732;-74
2022/06/13 00:06:21;;;;;;;350.23;205.50;;;;;;;20.33;87.04;99341.19;409749;24;1431;-74
2022/06/13 00:06:32;;;;;;;350.57;209.43;;;;;;;20.33;86.89;99346.50;411688;24;966;-74
2022/06/13 00:06:43;;;;;;;351.48;210.13;;;;;;;20.35;86.61;99348.06;411748;24;1388;-74
2022/06/13 00:06:54;;;;;;;352.38;212.38;;;;;;;20.35;86.79;99347.22;409982;24;845;-74
2022/06/13 00:07:04;;;;;;;353.37;211.33;;;;;;;20.36;86.89;99344.38;409906;24;848;-74
2022/06/13 00:07:14;;;;;;;354.35;213.65;;;;;;;20.35;86.90;99345.41;409682;24;917;-74
2022/06/13 00:07:25;;;;;;;351.70;211.10;;;;;;;20.35;86.72;99341.91;409855;24;779;-74
2022/06/13 00:07:35;;;;;;;353.27;212.00;;;;;;;20.33;86.67;99344.69;409847;24;917;-74
2022/06/13 00:07:46;;;;;;;352.03;210.53;;;;;;;20.35;86.96;99347.22;408017;24;794;-74
2022/06/13 00:07:56;;;;;;;351.88;211.07;;;;;;;20.34;86.46;99345.53;409844;24;988;-74
2022/06/13 00:08:07;;;;;;;351.27;211.77;;;;;;;20.34;86.95;99349.03;409837;24;818;-74
2022/06/13 00:08:17;;;;;;;351.92;214.00;;;;;;;20.33;86.65;99343.84;411602;24;1330;-75
2022/06/13 00:08:28;;;;;;;351.60;213.83;;;;;;;20.32;87.08;99342.16;413608;23;1327;-75
2022/06/13 00:08:38;;;;;;;350.48;213.20;;;;;;;20.34;87.03;99345.53;413465;23;1029;-75
2022/06/13 00:08:49;;;;;;;352.87;217.03;;;;;;;20.34;87.13;99342.88;417776;23;1039;-75
2022/06/13 00:08:59;;;;;;;353.65;218.20;;;;;;;20.31;86.85;99340.47;417580;23;939;-75
2022/06/13 00:09:10;;;;;;;357.80;217.93;;;;;;;20.30;86.85;99344.09;413580;23;823;-75
2022/06/13 00:09:20;;;;;;;356.40;214.33;;;;;;;20.29;87.09;99350.38;409887;24;857;-75
2022/06/13 00:09:31;;;;;;;355.38;212.93;;;;;;;20.27;86.82;99346.03;407678;24;1315;-75
2022/06/13 00:09:41;;;;;;;352.77;211.87;;;;;;;20.27;86.98;99340.72;408088;24;986;-75
2022/06/13 00:09:51;;;;;;;352.43;212.40;;;;;;;20.29;87.01;99345.06;411803;24;1008;-75
2022/06/13 00:10:02;;;;;;;351.42;211.73;;;;;;;20.27;86.83;99346.03;411674;24;1196;-75
2022/06/13 00:10:13;;;;;;;352.77;214.00;;;;;;;20.27;87.06;99345.19;408328;24;900;-74
2022/06/13 00:10:23;;;;;;;356.33;222.50;;;;;;;20.26;86.77;99348.84;405785;24;870;-74
2022/06/13 00:10:34;;;;;;;357.05;222.40;;;;;;;20.27;86.99;99346.03;407986;24;886;-74
2022/06/13 00:10:44;;;;;;;357.70;218.83;;;;;;;20.29;86.72;99345.06;408050;24;814;-74
2022/06/13 00:10:54;;;;;;;354.07;210.60;;;;;;;20.30;86.80;99346.75;411626;23;1475;-74
2022/06/13 00:11:06;;;;;;;354.42;212.68;;;;;;;20.29;86.66;99340.59;411791;24;897;-74
2022/06/13 00:11:19;;;;;;;354.83;214.48;;;;;;;20.29;86.98;99342.41;415517;23;835;-74
2022/06/13 00:11:29;;;;;;;354.92;215.25;;;;;;;20.30;86.94;99352.06;415279;23;892;-74
2022/06/13 00:11:40;;;;;;;352.43;212.30;;;;;;;20.28;86.74;99344.22;415681;23;844;-74
2022/06/13 00:11:50;;;;;;;351.70;212.10;;;;;;;20.27;87.23;99346.03;409891;24;804;-74
2022/06/13 00:12:01;;;;;;;352.67;211.37;;;;;;;20.29;86.76;99343.25;409883;24;844;-74
2022/06/13 00:12:11;;;;;;;352.27;210.70;;;;;;;20.27;86.63;99346.03;411614;24;1584;-74
2022/06/13 00:12:22;;;;;;;352.70;211.48;;;;;;;20.25;86.98;99345.34;409819;24;923;-74
2022/06/13 00:12:32;;;;;;;351.13;212.90;;;;;;;20.25;86.92;99345.34;411426;24;1329;-74
2022/06/13 00:12:43;;;;;;;353.23;214.75;;;;;;;20.25;86.52;99347.16;411832;24;861;-74
2022/06/13 00:12:53;;;;;;;354.50;214.83;;;;;;;20.25;86.48;99342.69;411704;24;873;-74
2022/06/13 00:13:04;;;;;;;354.05;212.75;;;;;;;20.27;86.76;99348.69;411637;24;1223;-74
2022/06/13 00:13:14;;;;;;;351.27;213.38;;;;;;;20.27;86.73;99343.38;411742;24;877;-74
2022/06/13 00:13:25;;;;;;;349.97;211.73;;;;;;;20.28;86.51;99346.88;413557;23;1165;-74
2022/06/13 00:13:36;;;;;;;350.77;208.33;;;;;;;20.30;86.54;99344.09;415569;23;1355;-74
2022/06/13 00:13:48;;;;;;;353.70;207.77;;;;;;;20.30;86.60;99344.94;415673;23;827;-74
2022/06/13 00:13:58;;;;;;;354.35;211.25;;;;;;;20.30;86.94;99344.94;411734;24;1049;-74
2022/06/13 00:14:09;;;;;;;353.60;213.23;;;;;;;20.30;86.88;99344.09;411641;24;1286;-74
2022/06/13 00:14:19;;;;;;;351.90;213.57;;;;;;;20.32;86.82;99347.47;411610;24;1242;-74
2022/06/13 00:14:29;;;;;;;353.53;213.00;;;;;;;20.32;86.69;99342.16;409896;24;860;-74
2022/06/13 00:14:40;;;;;;;356.13;215.80;;;;;;;20.35;86.67;99349.88;406920;24;805;-74
2022/06/13 00:14:50;;;;;;;356.23;215.73;;;;;;;20.34;86.80;99345.53;407858;24;1026;-74
2022/06/13 00:15:01;;;;;;;356.80;216.00;;;;;;;20.33;86.96;99342.03;407908;24;890;-74
2022/06/13 00:15:13;;;;;;;353.80;213.03;;;;;;;20.34;86.70;99348.19;407794;24;1206;-74
2022/06/13 00:15:24;;;;;;;352.45;213.90;;;;;;;20.34;86.39;99345.53;411733;24;1266;-74
2022/06/13 00:15:34;;;;;;;349.20;212.27;;;;;;;20.34;86.29;99345.53;411704;24;868;-74
2022/06/13 00:15:45;;;;;;;352.33;214.07;;;;;;;20.35;86.62;99352.53;411668;24;849;-74
2022/06/13 00:15:55;;;;;;;354.47;214.90;;;;;;;20.34;86.35;99341.06;413567;23;1352;-74
2022/06/13 00:16:06;;;;;;;354.92;213.05;;;;;;;20.34;86.71;99348.19;409581;24;802;-74
2022/06/13 00:16:16;;;;;;;356.77;213.33;;;;;;;20.33;86.69;99350.00;409941;24;869;-74
2022/06/13 00:16:27;;;;;;;354.92;211.98;;;;;;;20.34;86.74;99345.53;409703;24;782;-74
2022/06/13 00:16:37;;;;;;;354.33;211.40;;;;;;;20.33;86.31;99350.00;411796;24;1242;-74
2022/06/13 00:16:48;;;;;;;352.83;210.80;;;;;;;20.34;86.75;99345.53;413708;23;838;-74
2022/06/13 00:16:58;;;;;;;353.37;209.73;;;;;;;20.34;86.78;99350.84;413810;23;854;-74
2022/06/13 00:17:08;;;;;;;352.25;208.63;;;;;;;20.36;86.47;99346.25;409769;24;1306;-74
2022/06/13 00:17:19;;;;;;;351.97;208.37;;;;;;;20.36;86.83;99343.59;407902;24;781;-74
2022/06/13 00:17:29;;;;;;;350.92;207.63;;;;;;;20.33;86.74;99343.84;411766;24;1245;-74
2022/06/13 00:17:40;;;;;;;352.50;207.63;;;;;;;20.31;86.91;99340.47;411688;24;1026;-74
2022/06/13 00:17:50;;;;;;;351.43;207.27;;;;;;;20.29;86.58;99339.75;411604;24;1336;-74
2022/06/13 00:18:00;;;;;;;352.58;207.90;;;;;;;20.27;87.21;99342.53;411801;24;964;-74
2022/06/13 00:18:11;;;;;;;352.63;208.30;;;;;;;20.25;87.13;99345.34;413714;23;869;-74
2022/06/13 00:18:21;;;;;;;353.92;210.13;;;;;;;20.25;87.27;99340.00;413697;23;896;-74
2022/06/13 00:18:32;;;;;;;356.67;212.27;;;;;;;20.24;87.17;99341.00;411656;24;905;-74
2022/06/13 00:18:48;;;;;;;355.97;211.00;;;;;;;20.23;87.31;99339.31;409783;24;787;-74
2022/06/13 00:18:59;;;;;;;353.00;206.80;;;;;;;20.20;87.21;99336.91;407339;24;1041;-74
2022/06/13 00:19:09;;;;;;;351.80;206.98;;;;;;;20.21;87.45;99335.09;411252;24;881;-74
2022/06/13 00:19:20;;;;;;;355.57;213.20;;;;;;;20.22;87.56;99345.59;415663;23;906;-74
2022/06/13 00:19:30;;;;;;;358.02;215.18;;;;;;;20.21;87.27;99333.28;411600;23;1194;-74
2022/06/13 00:19:40;;;;;;;359.43;213.97;;;;;;;20.20;87.37;99336.91;409888;24;978;-74
2022/06/13 00:19:51;;;;;;;356.43;210.20;;;;;;;20.20;87.05;99339.56;409604;24;916;-74
2022/06/13 00:20:05;;;;;;;355.73;209.48;;;;;;;20.19;87.37;99337.03;409978;24;774;-74
2022/06/13 00:20:16;;;;;;;354.00;208.30;;;;;;;20.20;87.29;99338.72;407834;24;1440;-74
2022/06/13 00:20:26;;;;;;;352.10;206.07;;;;;;;20.20;87.05;99339.56;409894;24;788;-74
2022/06/13 00:20:37;;;;;;;351.90;207.00;;;;;;;20.17;87.27;99339.81;409812;24;883;-74
2022/06/13 00:20:47;;;;;;;353.52;209.75;;;;;;;20.17;87.28;99339.81;409681;24;1076;-74
2022/06/13 00:20:57;;;;;;;354.50;211.60;;;;;;;20.18;87.17;99338.84;409776;24;1058;-74
2022/06/13 00:21:08;;;;;;;356.10;210.43;;;;;;;20.20;87.08;99344.88;409753;24;966;-74
2022/06/13 00:21:37;;;;;;;355.50;209.43;;;;;;;20.20;87.00;99339.56;411513;24;1270;-74
2022/06/13 00:21:47;;;;;;;354.85;210.43;;;;;;;20.20;87.23;99344.88;409883;24;1470;-74
2022/06/13 00:21:58;;;;;;;356.23;211.35;;;;;;;20.20;87.38;99339.56;409834;24;993;-74
2022/06/13 00:22:09;;;;;;;359.87;211.07;;;;;;;20.20;87.24;99334.25;409743;24;1026;-75
2022/06/13 00:22:20;;;;;;;357.48;211.02;;;;;;;20.21;87.26;99335.94;411661;24;871;-75
2022/06/13 00:22:30;;;;;;;356.87;210.37;;;;;;;20.22;86.82;99337.63;411573;24;1953;-74
2022/06/13 00:22:40;;;;;;;352.55;210.85;;;;;;;20.22;87.00;99334.97;411843;24;1130;-74
2022/06/13 00:22:51;;;;;;;353.10;212.10;;;;;;;20.23;86.87;99341.97;411675;24;1066;-74
2022/06/13 00:23:01;;;;;;;352.07;210.63;;;;;;;20.24;87.18;99338.34;413660;23;1420;-74
2022/06/13 00:23:12;;;;;;;351.90;209.65;;;;;;;20.23;86.91;99339.31;411606;24;1221;-74
2022/06/13 00:23:22;;;;;;;354.37;211.03;;;;;;;20.24;86.71;99342.81;411358;24;927;-74
2022/06/13 00:23:35;;;;;;;356.77;212.90;;;;;;;20.25;87.19;99342.69;409542;24;933;-74
2022/06/13 00:23:47;;;;;;;355.40;209.65;;;;;;;20.25;86.91;99345.34;409938;24;1483;-74
2022/06/13 00:23:57;;;;;;;354.90;208.65;;;;;;;20.24;86.56;99335.69;409682;24;922;-74
2022/06/13 00:24:08;;;;;;;356.35;209.70;;;;;;;20.24;86.67;99338.34;409790;24;1317;-74
2022/06/13 00:24:19;;;;;;;359.92;213.50;;;;;;;20.26;86.41;99344.38;410460;24;1419;-74
2022/06/13 00:24:29;;;;;;;359.65;214.15;;;;;;;20.26;86.74;99339.03;411401;23;1269;-74
2022/06/13 00:24:40;;;;;;;359.27;216.27;;;;;;;20.26;86.77;99336.38;411396;24;844;-74
2022/06/13 00:24:50;;;;;;;355.75;213.98;;;;;;;20.27;86.71;99340.72;413576;23;966;-74
2022/06/13 00:25:00;;;;;;;354.97;213.20;;;;;;;20.29;86.49;99339.75;413628;23;1130;-74
2022/06/13 00:25:11;;;;;;;349.20;209.27;;;;;;;20.29;86.69;99337.09;409562;24;1271;-74
2022/06/13 00:25:21;;;;;;;348.00;206.25;;;;;;;20.29;86.40;99331.78;407890;24;860;-74
2022/06/13 00:25:32;;;;;;;349.77;208.83;;;;;;;20.29;86.47;99337.09;409714;24;991;-74
2022/06/13 00:25:42;;;;;;;354.42;210.98;;;;;;;20.27;86.53;99340.72;411596;24;956;-74
2022/06/13 00:25:53;;;;;;;357.73;212.43;;;;;;;20.27;86.27;99339.88;413623;23;1078;-74
2022/06/13 00:26:03;;;;;;;357.17;209.70;;;;;;;20.27;86.42;99345.19;413655;23;1046;-74
2022/06/13 00:26:13;;;;;;;354.57;208.57;;;;;;;20.27;86.35;99343.38;413677;23;802;-75
2022/06/13 00:26:25;;;;;;;354.00;209.75;;;;;;;20.27;86.13;99343.38;411782;24;724;-75
2022/06/13 00:26:36;;;;;;;358.73;215.68;;;;;;;20.27;86.21;99340.72;408085;23;854;-75
2022/06/13 00:26:47;;;;;;;361.07;223.03;;;;;;;20.26;86.24;99336.38;406643;24;833;-74
2022/06/13 00:26:57;;;;;;;358.73;223.50;;;;;;;20.27;86.35;99338.06;413539;23;1596;-74
2022/06/13 00:27:08;;;;;;;355.47;220.00;;;;;;;20.23;85.73;99336.66;415485;23;1272;-74
2022/06/13 00:27:18;;;;;;;353.88;216.20;;;;;;;20.22;86.17;99342.09;415680;23;777;-75
2022/06/13 00:27:28;;;;;;;352.90;213.23;;;;;;;20.23;86.37;99341.97;413424;23;1157;-75
2022/06/13 00:27:39;;;;;;;352.20;211.55;;;;;;;20.22;86.05;99329.66;411708;24;955;-75
2022/06/13 00:27:49;;;;;;;351.20;210.27;;;;;;;20.24;86.04;99341.00;411890;24;1040;-75
2022/06/13 00:28:00;;;;;;;350.40;209.68;;;;;;;20.24;85.84;99340.16;411707;24;845;-74
2022/06/13 00:28:10;;;;;;;351.50;210.53;;;;;;;20.26;86.07;99340.84;411809;24;893;-74
2022/06/13 00:28:21;;;;;;;351.90;208.63;;;;;;;20.27;85.79;99335.41;409762;24;1278;-74
2022/06/13 00:28:31;;;;;;;353.27;210.85;;;;;;;20.29;85.96;99337.09;411725;24;836;-74
2022/06/13 00:28:41;;;;;;;352.25;208.98;;;;;;;20.29;86.09;99339.75;407840;24;834;-76
2022/06/13 00:28:52;;;;;;;353.23;211.37;;;;;;;20.30;86.07;99333.47;411631;24;865;-75
2022/06/13 00:29:02;;;;;;;352.93;210.10;;;;;;;20.29;85.65;99337.09;411657;24;855;-75
2022/06/13 00:29:13;;;;;;;354.52;211.88;;;;;;;20.29;85.56;99331.78;409616;24;939;-75
2022/06/13 00:29:23;;;;;;;356.23;214.07;;;;;;;20.30;85.86;99336.97;409621;24;1319;-75
2022/06/13 00:29:34;;;;;;;355.73;214.55;;;;;;;20.31;85.66;99338.66;407444;24;1339;-75
2022/06/13 00:29:47;;;;;;;356.77;216.27;;;;;;;20.31;85.54;99338.66;407894;24;954;-75
2022/06/13 00:29:58;;;;;;;354.40;212.60;;;;;;;20.32;85.36;99336.84;409854;24;964;-75
2022/06/13 00:30:09;;;;;;;354.47;212.13;;;;;;;20.32;85.57;99334.19;409760;24;897;-74
2022/06/13 00:30:19;;;;;;;351.77;208.55;;;;;;;20.30;85.68;99336.13;411765;24;947;-74
2022/06/13 00:30:30;;;;;;;352.13;209.37;;;;;;;20.26;85.44;99333.72;411577;24;1237;-74
2022/06/13 00:30:40;;;;;;;352.02;209.45;;;;;;;20.27;85.89;99331.91;409788;24;783;-74
2022/06/13 00:30:51;;;;;;;352.83;213.33;;;;;;;20.25;85.93;99334.69;409553;24;1427;-74
2022/06/13 00:31:01;;;;;;;352.93;212.97;;;;;;;20.26;85.63;99339.03;409610;24;805;-74
2022/06/13 00:31:11;;;;;;;353.73;212.32;;;;;;;20.27;85.62;99334.56;409517;24;841;-74
2022/06/13 00:31:22;;;;;;;354.83;212.03;;;;;;;20.28;85.81;99333.59;411666;24;1167;-74
2022/06/13 00:31:32;;;;;;;354.88;213.63;;;;;;;20.27;85.78;99332.75;410226;24;1364;-75
2022/06/13 00:31:43;;;;;;;355.70;218.23;;;;;;;20.26;85.50;99338.19;404852;24;1199;-74
2022/06/13 00:31:53;;;;;;;356.33;220.05;;;;;;;20.23;85.34;99328.69;410702;24;1310;-74
2022/06/13 00:32:04;;;;;;;355.07;215.87;;;;;;;20.25;85.45;99331.19;413649;23;979;-74
2022/06/13 00:32:14;;;;;;;355.00;211.65;;;;;;;20.26;85.35;99332.88;411488;24;1312;-74
2022/06/13 00:32:24;;;;;;;354.83;210.50;;;;;;;20.27;85.26;99334.56;411210;24;1424;-74
2022/06/13 00:32:35;;;;;;;356.60;213.57;;;;;;;20.25;85.62;99334.69;413379;23;856;-74
2022/06/13 00:32:45;;;;;;;355.73;214.87;;;;;;;20.26;85.64;99328.41;411819;24;845;-74
2022/06/13 00:32:56;;;;;;;354.83;215.30;;;;;;;20.27;85.80;99332.75;411688;24;873;-74
2022/06/13 00:33:06;;;;;;;352.55;212.68;;;;;;;20.29;85.98;99326.47;411680;24;1364;-74
2022/06/13 00:33:17;;;;;;;351.67;208.68;;;;;;;20.29;85.80;99334.44;411660;24;1269;-74
2022/06/13 00:33:27;;;;;;;354.17;212.13;;;;;;;20.28;85.67;99325.63;408719;24;1469;-74
2022/06/13 00:33:38;;;;;;;357.95;215.27;;;;;;;20.31;85.58;99329.84;409356;24;958;-74
2022/06/13 00:33:48;;;;;;;362.70;219.47;;;;;;;20.30;85.66;99328.16;409790;24;853;-74
2022/06/13 00:33:58;;;;;;;360.70;215.87;;;;;;;20.30;85.26;99333.47;409800;24;822;-74
2022/06/13 00:34:09;;;;;;;356.77;214.82;;;;;;;20.30;85.66;99330.81;411606;24;1337;-74
2022/06/13 00:34:19;;;;;;;355.30;213.17;;;;;;;20.29;85.47;99331.78;411451;24;1000;-74
2022/06/13 00:34:30;;;;;;;355.98;212.43;;;;;;;20.30;85.70;99333.47;411626;24;802;-74
2022/06/13 00:34:40;;;;;;;358.13;212.53;;;;;;;20.30;85.61;99328.16;409601;24;951;-75
2022/06/13 00:34:51;;;;;;;354.35;208.77;;;;;;;20.30;85.96;99329.00;409907;24;874;-74
2022/06/13 00:35:01;;;;;;;353.03;208.67;;;;;;;20.30;85.87;99334.31;409690;24;1194;-74
2022/06/13 00:35:12;;;;;;;352.13;208.75;;;;;;;20.27;85.94;99326.59;409799;24;904;-74
2022/06/13 00:35:22;;;;;;;352.95;211.00;;;;;;;20.28;86.11;99328.28;409783;24;869;-74
2022/06/13 00:35:33;;;;;;;353.17;211.90;;;;;;;20.29;86.15;99332.63;411626;24;938;-74
2022/06/13 00:35:43;;;;;;;354.07;214.37;;;;;;;20.28;85.82;99330.94;413240;23;1162;-74
2022/06/13 00:35:53;;;;;;;355.20;215.38;;;;;;;20.27;85.92;99324.78;413599;23;1082;-74
2022/06/13 00:36:04;;;;;;;356.70;216.30;;;;;;;20.28;86.08;99333.59;415702;23;873;-74
2022/06/13 00:36:15;;;;;;;355.25;213.95;;;;;;;20.30;85.84;99328.16;415545;23;846;-74
2022/06/13 00:36:25;;;;;;;353.73;211.55;;;;;;;20.29;85.85;99326.47;413652;23;1040;-74
2022/06/13 00:36:36;;;;;;;350.77;209.40;;;;;;;20.31;85.92;99329.84;410426;23;987;-74
2022/06/13 00:36:46;;;;;;;354.92;217.95;;;;;;;20.31;86.19;99329.84;409676;23;730;-74
2022/06/13 00:36:56;;;;;;;358.10;219.90;;;;;;;20.31;86.22;99340.47;411741;24;838;-74
2022/06/13 00:37:07;;;;;;;359.33;221.23;;;;;;;20.30;85.94;99326.34;411827;24;826;-74
2022/06/13 00:37:17;;;;;;;355.17;213.77;;;;;;;20.30;85.85;99333.47;411792;24;1336;-74
2022/06/13 00:37:28;;;;;;;352.33;213.00;;;;;;;20.32;86.18;99331.53;411589;24;1348;-74
2022/06/13 00:37:38;;;;;;;350.98;209.55;;;;;;;20.31;85.93;99330.69;411665;24;830;-74
2022/06/13 00:37:49;;;;;;;351.67;210.13;;;;;;;20.31;85.63;99329.84;411477;24;1293;-74
2022/06/13 00:37:59;;;;;;;352.10;210.90;;;;;;;20.32;85.68;99331.53;409898;24;889;-74
2022/06/13 00:38:11;;;;;;;352.97;211.83;;;;;;;20.31;85.93;99330.69;413607;23;1225;-74
2022/06/13 00:38:21;;;;;;;351.23;211.20;;;;;;;20.29;85.98;99327.31;415452;23;1561;-74
2022/06/13 00:38:32;;;;;;;349.42;211.00;;;;;;;20.30;86.11;99326.34;413356;23;879;-74
2022/06/13 00:38:42;;;;;;;350.63;212.73;;;;;;;20.29;85.71;99337.09;413536;23;828;-74
2022/06/13 00:38:54;;;;;;;352.23;215.07;;;;;;;20.30;86.15;99333.47;411632;24;864;-74
2022/06/13 00:39:04;;;;;;;354.65;212.90;;;;;;;20.29;85.97;99326.47;411558;24;863;-74
2022/06/13 00:39:15;;;;;;;351.17;207.77;;;;;;;20.28;85.97;99336.25;407658;24;1356;-74
2022/06/13 00:39:25;;;;;;;350.80;206.60;;;;;;;20.27;85.75;99335.41;409745;24;826;-74
2022/06/13 00:39:36;;;;;;;350.25;207.95;;;;;;;20.27;85.95;99335.41;411655;24;933;-74
2022/06/13 00:39:46;;;;;;;352.40;209.87;;;;;;;20.29;86.19;99327.31;411702;24;794;-74
2022/06/13 00:39:56;;;;;;;351.43;206.97;;;;;;;20.30;86.02;99328.16;411692;24;1086;-74
2022/06/13 00:40:08;;;;;;;352.17;207.97;;;;;;;20.30;85.96;99330.81;409691;24;845;-74
2022/06/13 00:40:18;;;;;;;349.60;207.02;;;;;;;20.31;86.14;99330.69;411752;24;1026;-74
2022/06/13 00:40:32;;;;;;;349.90;208.65;;;;;;;20.32;85.99;99328.88;409744;24;1072;-74
2022/06/13 00:40:43;;;;;;;352.08;208.10;;;;;;;20.33;85.96;99333.22;411427;24;901;-74
2022/06/13 00:40:53;;;;;;;353.80;207.67;;;;;;;20.34;85.76;99330.41;411623;24;1324;-74
2022/06/13 00:41:11;;;;;;;354.05;207.80;;;;;;;20.34;86.00;99334.91;411568;24;1414;-74
2022/06/13 00:41:27;;;;;;;351.88;204.15;;;;;;;20.33;86.03;99327.91;411697;24;917;-74
2022/06/13 00:41:38;;;;;;;351.38;206.57;;;;;;;20.33;86.09;99326.06;407788;24;861;-75
2022/06/13 00:41:49;;;;;;;352.73;213.95;;;;;;;20.32;86.44;99331.53;408403;24;881;-74
2022/06/13 00:41:59;;;;;;;352.80;214.35;;;;;;;20.31;85.97;99329.84;411547;24;1000;-74
2022/06/13 00:42:12;;;;;;;353.37;212.40;;;;;;;20.30;86.03;99323.69;409859;24;1048;-74
2022/06/13 00:42:23;;;;;;;352.63;208.27;;;;;;;20.28;86.16;99325.63;409435;24;996;-74
2022/06/13 00:42:34;;;;;;;353.52;205.38;;;;;;;20.26;86.13;99328.41;411408;24;1898;-74
2022/06/13 00:42:46;;;;;;;352.83;204.63;;;;;;;20.25;86.40;99321.41;410607;24;971;-75
2022/06/13 00:42:56;;;;;;;350.35;202.15;;;;;;;20.26;86.25;99323.09;411569;24;1345;-75
2022/06/13 00:43:08;;;;;;;350.93;204.10;;;;;;;20.25;86.31;99325.88;411481;24;1093;-74
2022/06/13 00:43:18;;;;;;;350.17;206.18;;;;;;;20.24;86.67;99324.19;411772;24;861;-74
2022/06/13 00:43:29;;;;;;;350.80;208.60;;;;;;;20.24;86.36;99325.03;409485;24;857;-74
2022/06/13 00:43:40;;;;;;;351.30;209.02;;;;;;;20.25;86.83;99324.06;409653;24;859;-74
2022/06/13 00:43:50;;;;;;;353.65;210.50;;;;;;;20.25;86.65;99324.06;411294;24;1595;-75
2022/06/13 00:44:01;;;;;;;354.52;209.63;;;;;;;20.25;86.40;99329.38;411485;24;767;-75
2022/06/13 00:44:31;;;;;;;354.43;209.13;;;;;;;20.23;86.20;99325.16;411806;24;893;-75
2022/06/13 00:44:41;;;;;;;351.83;210.48;;;;;;;20.24;86.71;99330.34;409557;24;1526;-75
2022/06/13 00:45:08;;;;;;;352.83;209.57;;;;;;;20.19;86.46;99321.94;411845;24;945;-75
2022/06/13 00:45:22;;;;;;;348.63;203.25;;;;;;;20.20;86.70;99322.78;411729;24;918;-75
2022/06/13 00:45:34;;;;;;;347.50;200.85;;;;;;;20.20;86.48;99322.78;411834;24;845;-75
2022/06/13 00:45:44;;;;;;;347.73;201.43;;;;;;;20.21;86.46;99322.66;411672;24;883;-75
2022/06/13 00:45:55;;;;;;;350.48;205.43;;;;;;;20.19;86.75;99316.63;409713;24;1123;-75
2022/06/13 00:46:24;;;;;;;353.53;209.83;;;;;;;20.20;86.84;99320.97;409535;24;1337;-75
2022/06/13 00:46:35;;;;;;;348.70;205.63;;;;;;;20.21;86.94;99320.00;409833;24;993;-74
2022/06/13 00:46:45;;;;;;;350.23;205.10;;;;;;;20.20;86.36;99323.63;409896;24;928;-74
2022/06/13 00:46:56;;;;;;;350.55;204.50;;;;;;;20.22;86.30;99320.84;409975;24;1201;-74
2022/06/13 00:47:10;;;;;;;350.63;206.32;;;;;;;20.21;86.72;99320.00;409764;24;863;-74
2022/06/13 00:47:20;;;;;;;353.15;207.23;;;;;;;20.22;86.53;99315.50;411801;24;1068;-74
2022/06/13 00:47:31;;;;;;;352.87;206.80;;;;;;;20.21;86.72;99322.66;409801;24;1295;-74
2022/06/13 00:47:42;;;;;;;350.37;206.33;;;;;;;20.20;87.00;99325.44;409844;24;873;-74
2022/06/13 00:47:54;;;;;;;349.17;206.25;;;;;;;20.19;86.98;99321.09;409929;24;921;-74
2022/06/13 00:48:05;;;;;;;350.95;205.75;;;;;;;20.18;86.59;99320.25;411796;24;832;-74
2022/06/13 00:48:16;;;;;;;352.42;205.07;;;;;;;20.18;86.65;99319.41;415537;23;816;-74
2022/06/13 00:48:27;;;;;;;352.25;207.18;;;;;;;20.17;86.29;99323.03;411724;24;1312;-74
2022/06/13 00:48:38;;;;;;;349.05;205.68;;;;;;;20.18;86.47;99322.06;409654;24;1348;-74
2022/06/13 00:48:50;;;;;;;350.42;207.25;;;;;;;20.18;86.71;99322.91;413549;23;1199;-74
2022/06/13 00:49:01;;;;;;;352.75;208.48;;;;;;;20.19;86.47;99326.41;413551;23;951;-74
2022/06/13 00:49:14;;;;;;;354.92;211.23;;;;;;;20.18;86.66;99325.56;408808;24;1476;-74
2022/06/13 00:49:28;;;;;;;357.92;219.30;;;;;;;20.19;86.50;99316.63;406576;24;1451;-74
2022/06/13 00:49:42;;;;;;;357.33;220.48;;;;;;;20.19;86.50;99321.94;411667;24;983;-74
2022/06/13 00:49:53;;;;;;;352.70;210.13;;;;;;;20.18;86.54;99320.25;411719;24;817;-74
2022/06/13 00:50:04;;;;;;;353.80;209.67;;;;;;;20.19;86.72;99313.97;411703;24;856;-74
2022/06/13 00:50:18;;;;;;;356.52;210.45;;;;;;;20.20;86.72;99320.97;411774;24;845;-74
2022/06/13 00:50:30;;;;;;;358.17;213.38;;;;;;;20.21;86.39;99330.63;411756;24;925;-74
2022/06/13 00:50:46;;;;;;;354.33;210.60;;;;;;;20.23;86.17;99328.69;413628;23;996;-74
2022/06/13 00:50:57;;;;;;;349.95;205.13;;;;;;;20.20;86.33;99323.63;411813;24;908;-74
2022/06/13 00:51:07;;;;;;;350.08;206.13;;;;;;;20.22;86.22;99320.84;409585;24;1135;-74
2022/06/13 00:51:18;;;;;;;351.38;209.45;;;;;;;20.22;86.10;99324.34;411690;24;1459;-74
2022/06/13 00:51:29;;;;;;;353.07;210.30;;;;;;;20.22;86.29;99324.34;413741;23;1239;-74